createdAt,value
2022-11-12T00:01:50.908Z,8.83
2022-11-12T00:04:37.544Z,8.13
2022-11-12T00:07:23.843Z,8.90
2022-11-12T00:10:10.761Z,8.10
2022-11-12T00:12:58.342Z,8.33
2022-11-12T00:15:45.104Z,8.70
2022-11-12T00:18:31.316Z,8.20
2022-11-12T00:21:18.146Z,8.90
2022-11-12T00:24:04.773Z,8.50
2022-11-12T00:26:51.404Z,8.53
2022-11-12T00:29:39.217Z,8.60
2022-11-12T00:32:26.288Z,9.07
2022-11-12T00:35:14.080Z,8.07
2022-11-12T00:38:01.030Z,8.40
2022-11-12T00:40:47.946Z,7.33
2022-11-12T00:43:35.007Z,8.17
2022-11-12T00:46:23.210Z,8.10
2022-11-12T00:49:09.816Z,7.77
2022-11-12T00:51:55.967Z,6.50
2022-11-12T00:54:42.457Z,7.80
2022-11-12T00:57:28.799Z,7.10
2022-11-12T01:00:16.674Z,7.00
2022-11-12T01:03:04.395Z,7.50
2022-11-12T01:05:50.711Z,6.73
2022-11-12T01:08:37.083Z,6.30
2022-11-12T01:11:24.538Z,6.70
2022-11-12T01:14:11.268Z,6.80
2022-11-12T01:16:57.598Z,6.70
2022-11-12T01:19:45.343Z,7.70
2022-11-12T01:22:32.041Z,5.90
2022-11-12T01:25:18.638Z,7.40
2022-11-12T01:28:05.138Z,12.80
2022-11-12T01:30:51.453Z,12.20
2022-11-12T01:33:37.879Z,9.70
2022-11-12T01:36:25.814Z,7.60
2022-11-12T01:39:12.414Z,8.07
2022-11-12T01:41:58.866Z,7.00
2022-11-12T01:44:46.633Z,6.23
2022-11-12T01:47:35.669Z,6.40
2022-11-12T01:50:24.856Z,6.67
2022-11-12T01:53:13.993Z,5.83
2022-11-12T01:56:00.987Z,6.50
2022-11-12T01:58:47.832Z,7.37
2022-11-12T02:01:34.778Z,5.93
2022-11-12T02:04:22.358Z,6.30
2022-11-12T02:07:09.630Z,6.00
2022-11-12T02:09:57.527Z,5.90
2022-11-12T02:13:01.841Z,5.40
2022-11-12T02:15:48.307Z,5.93
2022-11-12T02:18:34.886Z,6.57
2022-11-12T02:21:22.947Z,6.33
2022-11-12T02:24:24.796Z,7.27
2022-11-12T02:27:12.123Z,7.20
2022-11-12T02:29:59.692Z,6.57
2022-11-12T02:32:45.769Z,5.43
2022-11-12T02:35:33.112Z,6.03
2022-11-12T02:38:20.499Z,5.77
2022-11-12T02:41:07.543Z,4.80
2022-11-12T02:43:53.992Z,4.60
2022-11-12T02:46:40.785Z,5.37
2022-11-12T02:49:27.214Z,4.83
2022-11-12T02:52:13.972Z,4.53
2022-11-12T02:55:01.712Z,4.40
2022-11-12T02:57:48.003Z,4.73
2022-11-12T03:00:34.210Z,4.67
2022-11-12T03:03:20.797Z,4.50
2022-11-12T03:06:07.357Z,4.47
2022-11-12T03:08:54.055Z,4.90
2022-11-12T03:11:41.558Z,4.40
2022-11-12T03:14:28.490Z,4.43
2022-11-12T03:17:14.574Z,4.17
2022-11-12T03:20:01.344Z,4.30
2022-11-12T03:22:57.153Z,4.30
2022-11-12T03:25:43.814Z,4.30
2022-11-12T03:28:31.879Z,4.23
2022-11-12T03:31:18.179Z,4.87
2022-11-12T03:34:04.477Z,4.30
2022-11-12T03:36:51.577Z,4.10
2022-11-12T03:39:38.201Z,4.40
2022-11-12T03:42:24.618Z,3.77
2022-11-12T03:45:12.798Z,4.50
2022-11-12T03:47:59.439Z,4.70
2022-11-12T03:50:45.919Z,4.40
2022-11-12T03:53:32.237Z,4.33
2022-11-12T03:56:18.676Z,5.17
2022-11-12T03:59:05.243Z,4.67
2022-11-12T04:01:53.260Z,4.77
2022-11-12T04:04:53.145Z,4.20
2022-11-12T04:07:57.909Z,5.00
2022-11-12T04:10:44.458Z,7.60
2022-11-12T04:13:31.549Z,8.10
2022-11-12T04:16:36.136Z,15.67
2022-11-12T04:19:41.668Z,14.50
2022-11-12T04:22:28.014Z,9.30
2022-11-12T04:25:32.141Z,7.87
2022-11-12T04:28:19.908Z,6.93
2022-11-12T04:31:06.783Z,6.40
2022-11-12T04:33:53.176Z,7.00
2022-11-12T04:36:40.869Z,6.90
2022-11-12T04:39:27.210Z,5.70
2022-11-12T04:42:31.140Z,6.50
2022-11-12T04:45:17.575Z,6.67
2022-11-12T04:48:04.417Z,7.43
2022-11-12T04:50:51.808Z,9.20
2022-11-12T04:53:39.726Z,7.50
2022-11-12T04:56:25.721Z,9.47
2022-11-12T04:59:13.289Z,7.50
2022-11-12T05:01:59.674Z,7.30
2022-11-12T05:04:46.438Z,8.47
2022-11-12T05:07:33.057Z,8.23
2022-11-12T05:10:21.317Z,7.30
2022-11-12T05:13:07.680Z,8.10
2022-11-12T05:15:54.366Z,7.50
2022-11-12T05:18:40.912Z,7.07
2022-11-12T05:21:48.408Z,7.00
2022-11-12T05:24:42.064Z,7.30
2022-11-12T05:27:31.089Z,6.50
2022-11-12T05:30:17.926Z,5.80
2022-11-12T05:33:04.432Z,7.37
2022-11-12T05:35:50.496Z,6.83
2022-11-12T05:38:38.289Z,7.30
2022-11-12T05:41:24.646Z,6.80
2022-11-12T05:44:13.050Z,6.50
2022-11-12T05:46:59.513Z,6.53
2022-11-12T05:49:45.854Z,6.90
2022-11-12T05:52:32.664Z,5.57
2022-11-12T05:55:19.107Z,5.90
2022-11-12T05:58:07.031Z,7.47
2022-11-12T06:00:54.843Z,6.40
2022-11-12T06:03:41.305Z,6.40
2022-11-12T06:06:28.054Z,6.67
2022-11-12T06:09:14.690Z,7.03
2022-11-12T06:12:06.182Z,7.70
2022-11-12T06:14:52.528Z,6.70
2022-11-12T06:17:40.565Z,6.80
2022-11-12T06:20:26.857Z,7.03
2022-11-12T06:23:13.415Z,7.90
2022-11-12T06:25:59.511Z,7.23
2022-11-12T06:28:45.978Z,7.17
2022-11-12T06:31:32.598Z,8.17
2022-11-12T06:34:20.631Z,7.20
2022-11-12T06:37:06.839Z,6.87
2022-11-12T06:39:53.398Z,8.10
2022-11-12T06:42:39.332Z,6.17
2022-11-12T06:45:26.730Z,6.00
2022-11-12T06:48:13.344Z,6.87
2022-11-12T06:51:06.214Z,7.20
2022-11-12T06:53:52.754Z,6.13
2022-11-12T06:56:39.326Z,7.23
2022-11-12T06:59:25.824Z,6.60
2022-11-12T07:02:12.843Z,6.47
2022-11-12T07:04:59.020Z,6.97
2022-11-12T07:07:47.135Z,7.30
2022-11-12T07:10:33.274Z,7.53
2022-11-12T07:13:19.613Z,7.30
2022-11-12T07:16:06.730Z,6.87
2022-11-12T07:18:53.415Z,7.10
2022-11-12T07:21:40.274Z,6.67
2022-11-12T07:24:28.583Z,5.93
2022-11-12T07:27:15.002Z,6.40
2022-11-12T07:30:02.182Z,7.57
2022-11-12T07:32:52.025Z,7.70
2022-11-12T07:35:39.078Z,8.10
2022-11-12T07:38:25.911Z,7.87
2022-11-12T07:41:15.386Z,7.23
2022-11-12T07:44:01.951Z,6.87
2022-11-12T07:46:48.312Z,6.27
2022-11-12T07:49:34.634Z,6.23
2022-11-12T07:52:22.406Z,6.77
2022-11-12T07:55:09.401Z,6.50
2022-11-12T07:57:59.736Z,8.03
2022-11-12T08:00:46.017Z,7.90
2022-11-12T08:03:32.621Z,8.57
2022-11-12T08:06:19.161Z,11.20
2022-11-12T08:09:06.767Z,7.43
2022-11-12T08:11:54.789Z,7.07
2022-11-12T08:14:43.029Z,7.20
2022-11-12T08:17:29.345Z,6.53
2022-11-12T08:20:15.953Z,6.03
2022-11-12T08:23:02.226Z,6.80
2022-11-12T08:25:49.139Z,7.10
2022-11-12T08:28:36.740Z,7.50
2022-11-12T08:31:25.018Z,7.40
2022-11-12T08:34:18.535Z,7.80
2022-11-12T08:37:08.015Z,8.57
2022-11-12T08:39:54.358Z,14.90
2022-11-12T08:42:41.074Z,14.17
2022-11-12T08:45:27.989Z,17.03
2022-11-12T08:48:16.432Z,12.80
2022-11-12T08:51:03.482Z,10.67
2022-11-12T08:53:49.796Z,9.50
2022-11-12T08:56:36.543Z,13.93
2022-11-12T08:59:22.933Z,10.53
2022-11-12T09:02:12.878Z,12.23
2022-11-12T09:05:00.625Z,8.90
2022-11-12T09:07:50.616Z,10.90
2022-11-12T09:10:38.505Z,10.83
2022-11-12T09:13:24.940Z,9.50
2022-11-12T09:16:11.794Z,8.60
2022-11-12T09:18:57.862Z,11.27
2022-11-12T09:21:45.439Z,13.30
2022-11-12T09:24:32.025Z,12.47
2022-11-12T09:27:18.523Z,12.13
2022-11-12T09:30:06.747Z,14.50
2022-11-12T09:32:58.074Z,13.13
2022-11-12T09:35:45.710Z,13.23
2022-11-12T09:38:33.997Z,13.60
2022-11-12T09:41:23.995Z,14.27
2022-11-12T09:44:11.538Z,14.30
2022-11-12T09:47:00.885Z,15.40
2022-11-12T09:49:50.747Z,14.90
2022-11-12T09:52:38.437Z,15.27
2022-11-12T09:55:29.534Z,18.17
2022-11-12T09:58:17.292Z,27.57
2022-11-12T10:01:07.577Z,14.13
2022-11-12T10:04:02.342Z,13.97
2022-11-12T10:06:51.423Z,13.00
2022-11-12T10:09:42.161Z,13.70
2022-11-12T10:12:34.817Z,14.27
2022-11-12T10:15:55.956Z,15.37
2022-11-12T10:18:49.007Z,13.03
2022-11-12T10:21:37.726Z,12.60
2022-11-12T10:24:24.648Z,11.47
2022-11-12T10:27:15.200Z,11.77
2022-11-12T10:30:04.312Z,11.67
2022-11-12T10:32:52.004Z,12.37
2022-11-12T10:35:38.039Z,10.93
2022-11-12T10:38:28.331Z,12.77
2022-11-12T10:41:19.154Z,10.97
2022-11-12T10:44:07.098Z,11.23
2022-11-12T10:47:14.701Z,11.00
2022-11-12T10:50:19.013Z,10.73
2022-11-12T10:53:05.730Z,11.40
2022-11-12T10:55:58.593Z,11.20
2022-11-12T10:58:44.899Z,11.73
2022-11-12T11:01:35.700Z,13.10
2022-11-12T11:04:40.442Z,11.87
2022-11-12T11:07:28.856Z,12.80
2022-11-12T11:10:24.172Z,10.90
2022-11-12T11:13:18.091Z,11.60
2022-11-12T11:16:05.417Z,11.47
2022-11-12T11:18:54.018Z,11.50
2022-11-12T11:21:58.484Z,9.90
2022-11-12T11:24:52.824Z,9.03
2022-11-12T11:27:42.621Z,9.27
2022-11-12T11:30:29.595Z,9.13
2022-11-12T11:33:33.519Z,9.87
2022-11-12T11:36:23.790Z,9.40
2022-11-12T11:39:15.621Z,10.20
2022-11-12T11:42:09.210Z,10.73
2022-11-12T11:44:59.059Z,10.67
2022-11-12T11:48:01.275Z,10.67
2022-11-12T11:50:56.177Z,9.40
2022-11-12T11:53:47.620Z,9.80
2022-11-12T11:56:37.719Z,9.87
2022-11-12T11:59:29.239Z,12.80
2022-11-12T12:02:26.098Z,10.30
2022-11-12T12:05:20.975Z,9.70
2022-11-12T12:08:08.879Z,9.37
2022-11-12T12:11:08.035Z,9.23
2022-11-12T12:14:03.965Z,9.00
2022-11-12T12:16:57.043Z,9.10
2022-11-12T12:19:51.845Z,8.30
2022-11-12T12:22:41.277Z,9.13
2022-11-12T12:25:29.541Z,8.00
2022-11-12T12:28:18.971Z,8.57
2022-11-12T12:31:07.334Z,8.57
2022-11-12T12:33:57.492Z,8.10
2022-11-12T12:36:44.941Z,8.33
2022-11-12T12:39:36.781Z,9.60
2022-11-12T12:42:26.275Z,9.40
2022-11-12T12:45:25.142Z,8.73
2022-11-12T12:48:16.550Z,11.23
2022-11-12T12:51:04.945Z,10.50
2022-11-12T12:53:51.020Z,8.70
2022-11-12T12:56:45.964Z,9.20
2022-11-12T12:59:32.486Z,9.60
2022-11-12T13:02:21.223Z,10.80
2022-11-12T13:05:07.968Z,10.10
2022-11-12T13:07:57.633Z,11.17
2022-11-12T13:10:47.905Z,10.73
2022-11-12T13:13:35.841Z,9.73
2022-11-12T13:16:36.738Z,10.30
2022-11-12T13:19:27.885Z,12.70
2022-11-12T13:22:34.105Z,13.53
2022-11-12T13:25:27.722Z,13.37
2022-11-12T13:28:14.732Z,12.70
2022-11-12T13:31:02.663Z,11.30
2022-11-12T13:33:49.470Z,12.07
2022-11-12T13:36:36.439Z,13.27
2022-11-12T13:39:23.659Z,11.00
2022-11-12T13:42:31.498Z,11.70
2022-11-12T13:45:18.255Z,6.40
2022-11-12T13:48:07.682Z,8.00
2022-11-12T13:50:56.440Z,8.43
2022-11-12T13:53:42.986Z,7.73
2022-11-12T13:56:30.399Z,9.83
2022-11-12T13:59:19.503Z,7.20
2022-11-12T14:02:06.387Z,7.87
2022-11-12T14:04:52.977Z,7.90
2022-11-12T14:07:43.246Z,8.57
2022-11-12T14:10:36.725Z,8.40
2022-11-12T14:13:30.678Z,7.60
2022-11-12T14:16:24.430Z,8.20
2022-11-12T14:19:29.454Z,6.60
2022-11-12T14:22:17.672Z,7.93
2022-11-12T14:25:04.403Z,9.20
2022-11-12T14:27:51.453Z,8.87
2022-11-12T14:30:44.784Z,8.33
2022-11-12T14:33:33.678Z,9.43
2022-11-12T14:36:20.696Z,9.23
2022-11-12T14:39:07.774Z,7.00
2022-11-12T14:41:54.590Z,9.90
2022-11-12T14:44:42.270Z,12.90
2022-11-12T14:47:28.478Z,13.53
2022-11-12T14:50:18.302Z,14.03
2022-11-12T14:53:07.190Z,9.23
2022-11-12T14:55:55.604Z,13.63
2022-11-12T14:58:42.176Z,12.90
2022-11-12T15:04:38.645Z,11.50
2022-11-12T15:07:28.345Z,12.10
2022-11-12T15:10:30.140Z,11.63
2022-11-12T15:13:17.330Z,14.30
2022-11-12T15:16:07.346Z,12.27
2022-11-12T15:19:05.798Z,23.53
2022-11-12T15:21:53.848Z,12.50
2022-11-12T15:24:43.882Z,12.87
2022-11-12T15:27:38.699Z,13.63
2022-11-12T15:30:26.081Z,13.50
2022-11-12T15:33:19.032Z,13.40
2022-11-12T15:36:05.375Z,13.33
2022-11-12T15:38:54.512Z,14.47
2022-11-12T15:41:42.483Z,15.30
2022-11-12T15:44:33.105Z,14.60
2022-11-12T15:47:21.757Z,14.53
2022-11-12T15:50:15.178Z,18.27
2022-11-12T15:53:01.723Z,17.90
2022-11-12T15:55:48.458Z,16.37
2022-11-12T15:58:36.846Z,19.60
2022-11-12T16:01:23.325Z,17.43
2022-11-12T16:04:10.099Z,17.37
2022-11-12T16:06:56.535Z,19.40
2022-11-12T16:09:43.043Z,20.63
2022-11-12T16:12:29.163Z,18.70
2022-11-12T16:15:18.595Z,17.67
2022-11-12T16:18:04.723Z,18.50
2022-11-12T16:20:51.788Z,18.20
2022-11-12T16:23:38.009Z,17.70
2022-11-12T16:26:27.670Z,18.63
2022-11-12T16:29:14.452Z,20.03
2022-11-12T16:32:03.157Z,19.73
2022-11-12T16:34:49.349Z,21.20
2022-11-12T16:37:38.415Z,23.53
2022-11-12T16:40:25.888Z,28.70
2022-11-12T16:43:13.006Z,25.00
2022-11-12T16:45:59.613Z,31.50
2022-11-12T16:48:47.713Z,31.90
2022-11-12T16:51:33.820Z,27.30
2022-11-12T16:54:20.133Z,26.50
2022-11-12T16:57:07.060Z,29.43
2022-11-12T16:59:53.919Z,24.17
2022-11-12T17:02:44.554Z,29.30
2022-11-12T17:05:35.323Z,29.17
2022-11-12T17:08:21.895Z,25.57
2022-11-12T17:11:09.715Z,27.30
2022-11-12T17:13:56.275Z,31.20
2022-11-12T17:16:45.074Z,31.07
2022-11-12T17:19:31.058Z,34.17
2022-11-12T17:22:20.202Z,33.33
2022-11-12T17:25:07.099Z,30.50
2022-11-12T17:27:54.063Z,29.80
2022-11-12T17:30:40.383Z,30.70
2022-11-12T17:33:27.299Z,27.90
2022-11-12T17:36:15.124Z,35.03
2022-11-12T17:39:03.176Z,33.03
2022-11-12T17:41:49.258Z,34.23
2022-11-12T17:44:36.232Z,34.27
2022-11-12T17:47:22.682Z,34.63
2022-11-12T17:50:11.008Z,33.93
2022-11-12T17:52:57.487Z,33.97
2022-11-12T17:55:45.485Z,31.10
2022-11-12T17:58:32.127Z,29.10
2022-11-12T18:01:19.718Z,33.63
2022-11-12T18:04:06.321Z,33.53
2022-11-12T18:06:53.462Z,33.93
2022-11-12T18:09:39.881Z,29.53
2022-11-12T18:12:27.899Z,32.60
2022-11-12T18:15:14.515Z,34.97
2022-11-12T18:18:01.008Z,35.90
2022-11-12T18:20:47.418Z,34.30
2022-11-12T18:23:36.883Z,34.13
2022-11-12T18:26:23.095Z,35.37
2022-11-12T18:29:11.073Z,33.93
2022-11-12T18:31:57.378Z,33.50
2022-11-12T18:34:46.258Z,32.63
2022-11-12T18:37:32.838Z,34.87
2022-11-12T18:40:19.026Z,43.00
2022-11-12T18:43:05.444Z,39.10
2022-11-12T18:45:57.656Z,38.30
2022-11-12T18:48:44.060Z,37.77
2022-11-12T18:51:30.397Z,40.47
2022-11-12T18:54:16.842Z,40.13
2022-11-12T18:57:03.112Z,41.00
2022-11-12T18:59:49.485Z,40.57
2022-11-12T19:02:37.777Z,42.93
2022-11-12T19:05:24.102Z,43.60
2022-11-12T19:08:10.695Z,38.27
2022-11-12T19:11:00.172Z,34.60
2022-11-12T19:13:50.845Z,33.23
2022-11-12T19:16:42.217Z,34.50
2022-11-12T19:19:30.540Z,36.53
2022-11-12T19:22:16.602Z,35.07
2022-11-12T19:25:03.615Z,34.63
2022-11-12T19:27:50.329Z,34.00
2022-11-12T19:30:37.418Z,36.30
2022-11-12T19:33:23.842Z,36.67
2022-11-12T19:36:14.173Z,37.20
2022-11-12T19:39:02.513Z,35.93
2022-11-12T19:41:48.941Z,37.20
2022-11-12T19:44:35.208Z,35.93
2022-11-12T19:47:24.093Z,37.80
2022-11-12T19:50:10.723Z,38.07
2022-11-12T19:52:59.199Z,35.30
2022-11-12T19:55:45.260Z,36.33
2022-11-12T19:58:32.274Z,35.03
2022-11-12T20:01:19.242Z,37.00
2022-11-12T20:04:06.467Z,36.87
2022-11-12T20:06:53.616Z,35.50
2022-11-12T20:09:41.573Z,34.77
2022-11-12T20:12:29.858Z,35.90
2022-11-12T20:15:15.951Z,34.50
2022-11-12T20:18:02.477Z,36.57
2022-11-12T20:20:49.411Z,36.07
2022-11-12T20:23:37.011Z,35.47
2022-11-12T20:26:26.644Z,35.73
2022-11-12T20:29:13.681Z,33.97
2022-11-12T20:31:59.773Z,34.93
2022-11-12T20:34:46.326Z,34.60
2022-11-12T20:37:34.718Z,36.10
2022-11-12T20:40:21.427Z,36.93
2022-11-12T20:43:09.256Z,35.80
2022-11-12T20:45:56.667Z,35.90
2022-11-12T20:48:43.857Z,38.20
2022-11-12T20:51:32.201Z,37.60
2022-11-12T20:54:18.703Z,37.33
2022-11-12T20:57:05.738Z,38.63
2022-11-12T20:59:53.356Z,39.67
2022-11-12T21:02:39.480Z,39.00
2022-11-12T21:05:26.903Z,41.67
2022-11-12T21:08:13.436Z,36.00
2022-11-12T21:11:00.384Z,39.50
2022-11-12T21:13:47.300Z,39.23
2022-11-12T21:16:35.265Z,40.80
2022-11-12T21:19:21.838Z,39.90
2022-11-12T21:22:08.165Z,41.17
2022-11-12T21:24:54.247Z,38.23
2022-11-12T21:27:40.321Z,38.13
2022-11-12T21:30:26.801Z,40.80
2022-11-12T21:33:14.500Z,41.67
2022-11-12T21:36:01.085Z,40.07
2022-11-12T21:38:47.850Z,42.27
2022-11-12T21:41:33.794Z,42.10
2022-11-12T21:44:20.034Z,41.40
2022-11-12T21:47:06.705Z,42.90
2022-11-12T21:49:55.101Z,43.77
2022-11-12T21:52:41.310Z,45.30
2022-11-12T21:55:28.004Z,43.23
2022-11-12T21:58:14.118Z,41.40
2022-11-12T22:01:08.150Z,44.67
2022-11-12T22:03:55.285Z,42.90
2022-11-12T22:06:43.624Z,44.87
2022-11-12T22:09:30.211Z,44.43
2022-11-12T22:12:16.824Z,41.50
2022-11-12T22:15:03.324Z,43.40
2022-11-12T22:17:50.720Z,41.20
2022-11-12T22:20:37.000Z,40.60
2022-11-12T22:23:25.200Z,38.37
2022-11-12T22:26:12.445Z,37.80
2022-11-12T22:29:00.614Z,40.70
2022-11-12T22:31:46.873Z,40.80
2022-11-12T22:34:33.678Z,39.10
2022-11-12T22:37:19.750Z,39.93
2022-11-12T22:40:13.162Z,37.73
2022-11-12T22:42:59.874Z,37.30
2022-11-12T22:45:46.485Z,36.40
2022-11-12T22:48:33.066Z,37.37
2022-11-12T22:51:21.587Z,35.97
2022-11-12T22:54:09.385Z,34.53
2022-11-12T22:56:57.898Z,37.10
2022-11-12T22:59:44.320Z,34.97
2022-11-12T23:02:30.876Z,35.13
2022-11-12T23:05:17.341Z,35.00
2022-11-12T23:08:03.804Z,35.50
2022-11-12T23:10:49.882Z,34.50
2022-11-12T23:13:37.951Z,35.10
2022-11-12T23:16:25.353Z,33.40
2022-11-12T23:19:11.914Z,33.80
2022-11-12T23:21:57.968Z,32.73
2022-11-12T23:24:44.943Z,32.37
2022-11-12T23:27:31.070Z,31.40
2022-11-12T23:30:19.096Z,31.93
2022-11-12T23:33:05.672Z,31.93
2022-11-12T23:35:51.714Z,30.43
2022-11-12T23:38:38.140Z,28.17
2022-11-12T23:41:26.011Z,29.80
2022-11-12T23:44:12.408Z,29.93
2022-11-12T23:47:00.300Z,29.47
2022-11-12T23:49:46.943Z,27.80
2022-11-12T23:52:34.065Z,28.43
2022-11-12T23:55:20.471Z,26.77
2022-11-12T23:58:07.444Z,27.30
